Accueil
METAR-TAF:

METAR-TAF

Aéroports :

Lucius D. Clay Kaserne

Wiesbaden, Allemagne

latitude: 50-03N, longitude: 008-20E, altitude: 140 m

Observation

Le bulletin a été fait il y a 19 minutes, à 12:56 UTC
Vent 6 kt de est
Température 25°C
Humidité 36%
Pression 1025 hPa
Visibilité 10 km ou plus
Ciel clair

METAR: ETOU 221256Z AUTO 09006KT 9999 CLR 25/09 A3028 RMK AO2 SLP252 T02540088 $

Heure: 15:15 (13:15 UTC)

Prévision

Le bulletin a été fait il y a 2 heures et 15 minutes, à 11:00 UTC
Prévision valable du 22 à 11 UTC au 23 à 17 UTC
Vent 6 kt de direction variable
Visibilité 10 km ou plus
Ciel clair
Evoluant progressivement
du 23 à 05 UTC au 23 à 06 UTC
Vent 9 kt de est/nord-est
Visibilité 10 km ou plus
Ciel clair

TAF: ETOU 221100Z 2211/2317 VRB06KT 9999 SKC QNH3034INS BECMG 2305/2306 07009KT 9999 SKC QNH3034INS TX25/2215Z TN10/2305Z

Observations et prévisions météorologiques de plus de 4000 aéroports (messages METAR et TAF).

Les stations disponibles sont représentées par des disques jaunes et rouges sur la carte.

Passer la souris dessus pour voir le nom de la station.

Cliquer dessus pour voir les observations et prévisions météorologiques.

Pour changer de carte: cliquez sur les boutons verts avec une croix noire pour zoomer, sur le bouton vert avec un tiret pour effectuer un zoom arrière, ou sur les flèches vertes pour les cartes adjacentes.


METAR-TAF: